Time;durP1;ratioP1;P1;durP2;ratioP2;P2;SDS_P1;SDS_P2;PMS_P1;PMS_P2;Temp;Humidity;BMP_temperature;BMP_pressure;BME280_temperature;BME280_humidity;BME280_pressure;Samples;Min_cycle;Max_cycle;Signal;HPM_P1;HPM_P2
2022/01/08 00:01:48;;;;;;;;;;;;;;;-4.46;91.35;100764.34;5597480;31;36294;-82
2022/01/08 00:04:51;;;;;;;;;;;;;;;-4.50;91.60;100758.41;5597291;31;34415;-82
2022/01/08 00:07:54;;;;;;;;;;;;;;;-4.40;89.55;100756.50;5596714;31;34380;-82
2022/01/08 00:10:57;;;;;;;;;;;;;;;-4.13;87.59;100757.59;5597274;31;34384;-82
2022/01/08 00:14:04;;;;;;;;;;;;;;;-4.06;88.13;100758.28;5597404;31;34547;-82
2022/01/08 00:17:07;;;;;;;;;;;;;;;-4.20;89.46;100756.88;5596806;31;34881;-82
2022/01/08 00:20:09;;;;;;;;;;;;;;;-4.35;91.06;100752.91;5596925;31;34141;-83
2022/01/08 00:23:12;;;;;;;;;;;;;;;-4.39;91.03;100746.09;5596461;31;35300;-82
2022/01/08 00:26:18;;;;;;;;;;;;;;;-4.28;90.79;100738.13;5596601;31;34993;-82
2022/01/08 00:29:20;;;;;;;;;;;;;;;-4.22;89.84;100742.28;5596771;31;34866;-82
2022/01/08 00:32:23;;;;;;;;;;;;;;;-4.31;91.84;100739.91;5597335;31;34666;-82
2022/01/08 00:35:27;;;;;;;;;;;;;;;-4.36;92.99;100737.44;5596525;31;34072;-82
2022/01/08 00:38:30;;;;;;;;;;;;;;;-4.33;93.50;100734.78;5597775;31;34323;-82
2022/01/08 00:41:34;;;;;;;;;;;;;;;-4.39;94.08;100730.59;5597127;31;33854;-82
2022/01/08 00:44:39;;;;;;;;;;;;;;;-4.36;93.01;100721.94;5598923;31;34309;-82
2022/01/08 00:47:42;;;;;;;;;;;;;;;-4.41;92.01;100710.88;5596773;31;34591;-82
2022/01/08 00:50:45;;;;;;;;;;;;;;;-4.43;92.27;100713.47;5598516;31;34551;-82
2022/01/08 00:53:49;;;;;;;;;;;;;;;-4.48;92.37;100712.75;5597020;31;34448;-82
2022/01/08 00:56:52;;;;;;;;;;;;;;;-4.48;92.02;100707.56;5596582;31;34355;-82
2022/01/08 00:59:57;;;;;;;;;;;;;;;-4.33;90.97;100702.94;5602195;31;34096;-81
2022/01/08 01:03:02;;;;;;;;;;;;;;;-4.41;91.42;100701.37;5602702;31;35397;-81
2022/01/08 01:06:06;;;;;;;;;;;;;;;-4.36;91.37;100709.00;5597277;31;34336;-81
2022/01/08 01:09:08;;;;;;;;;;;;;;;-4.35;90.63;100705.53;5596555;31;34549;-81
2022/01/08 01:12:13;;;;;;;;;;;;;;;-4.42;91.23;100694.50;5597238;31;34675;-81
2022/01/08 01:15:35;;;;;;;;;;;;;;;-4.45;91.85;100686.84;5596340;31;34951;-81
2022/01/08 01:18:46;;;;;;;;;;;;;;;-4.44;90.68;100682.53;5596109;31;34450;-81
2022/01/08 01:21:49;;;;;;;;;;;;;;;-4.36;89.28;100673.72;5596176;31;34225;-81
2022/01/08 01:24:59;;;;;;;;;;;;;;;-4.42;89.57;100660.09;5597860;31;34424;-81
2022/01/08 01:41:21;;;;;;;;;;;;;;;-5.02;94.15;100657.13;5603147;31;34587;-81
2022/01/08 01:47:49;;;;;;;;;;;;;;;-5.04;94.22;100649.44;5596586;31;34415;-81
2022/01/08 01:50:51;;;;;;;;;;;;;;;-5.05;94.68;100629.66;5595933;31;34685;-81
2022/01/08 01:53:54;;;;;;;;;;;;;;;-4.99;94.82;100626.94;5595583;31;34257;-85
2022/01/08 01:56:57;;;;;;;;;;;;;;;-4.89;94.00;100637.06;5595331;31;35229;-84
2022/01/08 02:00:03;;;;;;;;;;;;;;;-4.94;92.44;100636.31;5595941;31;34442;-84
2022/01/08 02:03:13;;;;;;;;;;;;;;;-5.07;93.89;100639.16;5596018;31;34327;-84
2022/01/08 02:06:16;;;;;;;;;;;;;;;-5.16;94.02;100623.91;5596490;31;33805;-84
2022/01/08 02:09:18;;;;;;;;;;;;;;;-5.20;95.32;100624.84;5595544;31;34332;-84
2022/01/08 02:12:32;;;;;;;;;;;;;;;-5.29;95.71;100629.31;5596346;31;34512;-84
2022/01/08 02:15:35;;;;;;;;;;;;;;;-5.28;95.00;100619.81;5595830;31;34142;-84
2022/01/08 02:18:42;;;;;;;;;;;;;;;-5.43;94.89;100616.72;5595151;31;34892;-84
2022/01/08 02:21:55;;;;;;;;;;;;;;;-5.51;95.09;100610.84;5595576;31;34863;-84
2022/01/08 02:24:59;;;;;;;;;;;;;;;-5.70;96.74;100607.81;5595325;31;33434;-84
2022/01/08 02:28:06;;;;;;;;;;;;;;;-5.80;98.44;100611.44;5595207;31;34923;-84
2022/01/08 02:31:22;;;;;;;;;;;;;;;-5.84;98.43;100605.47;5595439;31;35036;-84
2022/01/08 02:34:26;;;;;;;;;;;;;;;-5.98;98.94;100604.91;5596919;31;34467;-84
2022/01/08 02:37:29;;;;;;;;;;;;;;;-6.13;98.53;100601.75;5598013;31;34374;-84
2022/01/08 02:40:32;;;;;;;;;;;;;;;-6.22;99.56;100605.34;5597167;31;34500;-84
2022/01/08 02:43:40;;;;;;;;;;;;;;;-6.28;99.02;100590.00;5596594;31;34501;-84
2022/01/08 02:46:43;;;;;;;;;;;;;;;-6.30;99.41;100594.31;5595756;31;34257;-84
2022/01/08 02:49:51;;;;;;;;;;;;;;;-6.35;99.86;100601.28;5595620;31;34740;-84
2022/01/08 02:52:55;;;;;;;;;;;;;;;-6.35;100.00;100609.00;5595901;31;34588;-84
2022/01/08 02:56:01;;;;;;;;;;;;;;;-6.42;100.00;100603.13;5595246;31;34846;-84
2022/01/08 02:59:04;;;;;;;;;;;;;;;-6.43;100.00;100601.41;5581747;31;34172;-84
2022/01/08 03:02:07;;;;;;;;;;;;;;;-6.53;100.00;100597.31;5595165;31;34635;-84
2022/01/08 03:05:13;;;;;;;;;;;;;;;-6.59;100.00;100594.81;5594986;31;35143;-84
2022/01/08 03:08:17;;;;;;;;;;;;;;;-6.61;100.00;100587.13;5596869;31;35366;-84
2022/01/08 03:11:20;;;;;;;;;;;;;;;-6.60;100.00;100585.38;5598185;31;35227;-84
2022/01/08 03:14:23;;;;;;;;;;;;;;;-6.67;100.00;100592.34;5598437;31;35303;-84
2022/01/08 03:17:26;;;;;;;;;;;;;;;-6.68;100.00;100595.81;5597330;31;33951;-84
2022/01/08 03:20:29;;;;;;;;;;;;;;;-6.74;100.00;100591.59;5597963;31;34393;-84
2022/01/08 03:23:43;;;;;;;;;;;;;;;-6.81;100.00;100587.44;5597807;31;34474;-84
2022/01/08 03:26:47;;;;;;;;;;;;;;;-6.85;100.00;100588.34;5598069;31;34161;-84
2022/01/08 03:29:49;;;;;;;;;;;;;;;-6.83;100.00;100589.19;5597429;31;34330;-84
2022/01/08 03:32:52;;;;;;;;;;;;;;;-6.79;100.00;100592.53;5597333;31;34882;-84
2022/01/08 03:35:54;;;;;;;;;;;;;;;-6.79;100.00;100593.41;5597242;31;34612;-84
2022/01/08 03:38:57;;;;;;;;;;;;;;;-6.77;100.00;100590.81;5596725;31;33928;-84
2022/01/08 03:42:02;;;;;;;;;;;;;;;-6.81;100.00;100589.16;5597553;31;34880;-84
2022/01/08 03:45:05;;;;;;;;;;;;;;;-6.77;100.00;100590.81;5597941;31;34322;-84
2022/01/08 03:48:26;;;;;;;;;;;;;;;-6.88;100.00;100603.84;5597381;31;34491;-84
2022/01/08 03:51:30;;;;;;;;;;;;;;;-6.93;100.00;100598.78;5598798;31;34163;-84
2022/01/08 03:54:41;;;;;;;;;;;;;;;-6.86;100.00;100608.09;5597537;31;34442;-84
2022/01/08 03:57:44;;;;;;;;;;;;;;;-6.86;100.00;100602.94;5597078;31;34475;-84
2022/01/08 04:00:47;;;;;;;;;;;;;;;-6.86;100.00;100602.94;5597216;31;34227;-84
2022/01/08 04:03:50;;;;;;;;;;;;;;;-6.89;100.00;100608.12;5597232;31;35512;-84
2022/01/08 04:06:53;;;;;;;;;;;;;;;-6.96;100.00;100611.69;5599095;31;34625;-84
2022/01/08 04:09:57;;;;;;;;;;;;;;;-7.04;100.00;100608.38;5601074;31;35162;-84
2022/01/08 04:13:08;;;;;;;;;;;;;;;-7.09;100.00;100600.69;5601414;31;34135;-84
2022/01/08 04:16:15;;;;;;;;;;;;;;;-7.14;100.00;100602.50;5600365;31;35035;-84
2022/01/08 04:19:19;;;;;;;;;;;;;;;-7.19;100.00;100594.84;5598204;31;34523;-84
2022/01/08 04:22:23;;;;;;;;;;;;;;;-7.24;100.00;100586.34;5598131;31;34366;-84
2022/01/08 04:25:26;;;;;;;;;;;;;;;-7.21;100.00;100582.87;5597167;31;34444;-84
2022/01/08 04:28:29;;;;;;;;;;;;;;;-7.20;100.00;100582.00;5596757;31;34782;-84
2022/01/08 04:31:32;;;;;;;;;;;;;;;-7.11;100.00;100581.03;5597417;31;34028;-83
2022/01/08 04:34:34;;;;;;;;;;;;;;;-7.10;100.00;100568.16;5597653;31;33132;-83
2022/01/08 04:37:37;;;;;;;;;;;;;;;-7.07;100.00;100562.13;5597395;31;33923;-83
2022/01/08 04:40:40;;;;;;;;;;;;;;;-7.05;100.00;100552.66;5596699;31;34658;-84
2022/01/08 04:43:43;;;;;;;;;;;;;;;-7.07;100.00;100560.38;5599121;31;35443;-84
2022/01/08 04:46:46;;;;;;;;;;;;;;;-7.07;100.00;100556.97;5597023;31;33936;-84
2022/01/08 04:49:51;;;;;;;;;;;;;;;-7.07;100.00;100556.97;5597795;31;34409;-84
2022/01/08 04:52:55;;;;;;;;;;;;;;;-7.17;100.00;100556.25;5598115;31;35385;-84
2022/01/08 04:55:57;;;;;;;;;;;;;;;-7.24;100.00;100545.19;5596460;31;34442;-84
2022/01/08 04:59:00;;;;;;;;;;;;;;;-7.26;100.00;100546.09;5596744;31;34139;-84
2022/01/08 05:02:02;;;;;;;;;;;;;;;-7.26;100.00;100546.94;5595822;31;34312;-84
2022/01/08 05:05:06;;;;;;;;;;;;;;;-7.39;100.00;100550.56;5596251;31;33944;-84
2022/01/08 05:08:08;;;;;;;;;;;;;;;-7.41;100.00;100549.75;5596994;31;34634;-84
2022/01/08 05:11:11;;;;;;;;;;;;;;;-7.45;100.00;100542.06;5598419;31;34381;-85
2022/01/08 05:14:13;;;;;;;;;;;;;;;-7.43;100.00;100536.06;5596148;31;34574;-84
2022/01/08 05:17:25;;;;;;;;;;;;;;;-7.47;100.00;100540.38;5596498;31;34373;-84
2022/01/08 05:20:32;;;;;;;;;;;;;;;-7.48;100.00;100533.53;5598044;31;34592;-84
2022/01/08 05:23:35;;;;;;;;;;;;;;;-7.45;100.00;100542.06;5596505;31;34813;-84
2022/01/08 05:26:37;;;;;;;;;;;;;;;-7.29;100.00;100536.72;5597368;31;35075;-84
2022/01/08 05:29:40;;;;;;;;;;;;;;;-7.16;100.00;100542.50;5597773;31;35027;-84
2022/01/08 05:32:45;;;;;;;;;;;;;;;-6.95;100.00;100546.50;5595876;31;35233;-84
2022/01/08 05:35:47;;;;;;;;;;;;;;;-6.83;100.00;100556.59;5596066;31;33935;-84
2022/01/08 05:38:58;;;;;;;;;;;;;;;-6.65;100.00;100559.72;5598470;31;33912;-85
2022/01/08 05:42:01;;;;;;;;;;;;;;;-6.53;100.00;100551.81;5597510;31;33931;-85
2022/01/08 05:45:04;;;;;;;;;;;;;;;-6.45;100.00;100540.50;5598846;31;34642;-84
2022/01/08 05:48:09;;;;;;;;;;;;;;;-6.32;100.00;100531.69;5595990;31;35289;-84
2022/01/08 05:51:12;;;;;;;;;;;;;;;-6.28;100.00;100533.34;5596801;31;34647;-84
2022/01/08 05:54:15;;;;;;;;;;;;;;;-6.32;100.00;100542.00;5597593;31;34519;-84
2022/01/08 05:57:17;;;;;;;;;;;;;;;-6.35;100.00;100542.03;5595787;31;35141;-84
2022/01/08 06:00:20;;;;;;;;;;;;;;;-6.34;100.00;100548.91;5596158;31;34346;-84
2022/01/08 06:03:22;;;;;;;;;;;;;;;-6.38;100.00;100550.69;5595525;31;34627;-84
2022/01/08 06:06:26;;;;;;;;;;;;;;;-6.50;100.00;100562.94;5598098;31;34504;-84
2022/01/08 06:09:28;;;;;;;;;;;;;;;-6.48;100.00;100567.16;5595714;31;34400;-84
2022/01/08 06:12:31;;;;;;;;;;;;;;;-6.57;100.00;100564.75;5596772;31;35076;-84
2022/01/08 06:15:37;;;;;;;;;;;;;;;-6.70;100.00;100577.81;5596289;31;34623;-85
2022/01/08 06:18:40;;;;;;;;;;;;;;;-6.56;100.00;100585.31;5596617;31;34432;-85
2022/01/08 06:21:45;;;;;;;;;;;;;;;-6.68;100.00;100588.09;5597867;31;34412;-84
2022/01/08 06:24:48;;;;;;;;;;;;;;;-6.86;100.00;100587.50;5596225;31;34940;-84
2022/01/08 06:27:50;;;;;;;;;;;;;;;-6.71;100.00;100588.16;5595220;31;34323;-84
2022/01/08 06:30:54;;;;;;;;;;;;;;;-6.75;100.00;100599.34;5596089;31;34292;-84
2022/01/08 06:33:57;;;;;;;;;;;;;;;-6.78;100.00;100599.41;5597255;31;34929;-85
2022/01/08 06:36:59;;;;;;;;;;;;;;;-6.80;100.00;100584.00;5597120;31;34496;-85
2022/01/08 06:40:02;;;;;;;;;;;;;;;-7.01;100.00;100585.16;5599830;31;34367;-85
2022/01/08 06:43:05;;;;;;;;;;;;;;;-7.18;100.00;100582.81;5597549;31;36791;-85
2022/01/08 06:46:07;;;;;;;;;;;;;;;-7.25;100.00;100582.06;5595744;31;34511;-83
2022/01/08 06:49:10;;;;;;;;;;;;;;;-7.17;100.00;100571.66;5595313;31;34442;-85
2022/01/08 06:52:12;;;;;;;;;;;;;;;-7.19;100.00;100578.56;5595633;31;34689;-85
2022/01/08 06:55:15;;;;;;;;;;;;;;;-7.18;100.00;100575.97;5595897;31;34046;-85
2022/01/08 06:58:25;;;;;;;;;;;;;;;-7.23;100.00;100572.59;5595562;31;34599;-84
2022/01/08 07:01:29;;;;;;;;;;;;;;;-7.24;100.00;100576.03;5595058;31;35444;-85
2022/01/08 07:04:31;;;;;;;;;;;;;;;-7.21;100.00;100565.72;5596067;31;35032;-84
2022/01/08 07:07:35;;;;;;;;;;;;;;;-7.24;100.00;100559.78;5595522;31;33876;-85
2022/01/08 07:10:38;;;;;;;;;;;;;;;-7.19;100.00;100564.00;5594104;31;34509;-82
2022/01/08 07:13:41;;;;;;;;;;;;;;;-7.18;100.00;100565.69;5596779;31;33810;-83
2022/01/08 07:16:44;;;;;;;;;;;;;;;-7.11;100.00;100570.72;5600666;31;35159;-83
2022/01/08 07:19:47;;;;;;;;;;;;;;;-7.09;100.00;100561.28;5598732;31;35538;-85
2022/01/08 07:22:49;;;;;;;;;;;;;;;-7.05;100.00;100544.94;5595956;31;34025;-82
2022/01/08 07:25:54;;;;;;;;;;;;;;;-7.00;100.00;100548.28;5595164;31;34465;-83
2022/01/08 07:28:56;;;;;;;;;;;;;;;-7.03;100.00;100540.59;5595184;31;34387;-83
2022/01/08 07:31:59;;;;;;;;;;;;;;;-6.95;100.00;100543.91;5594631;31;34045;-82
2022/01/08 07:35:02;;;;;;;;;;;;;;;-6.72;100.00;100542.69;5595087;31;34393;-82
2022/01/08 07:38:04;;;;;;;;;;;;;;;-6.67;100.00;100540.88;5595528;31;34476;-82
2022/01/08 07:41:07;;;;;;;;;;;;;;;-6.75;100.00;100547.88;5595956;31;34958;-83
2022/01/08 07:44:15;;;;;;;;;;;;;;;-6.67;100.00;100546.03;5595429;31;34583;-83
2022/01/08 07:47:20;;;;;;;;;;;;;;;-6.61;100.00;100540.81;5595678;31;34574;-84
2022/01/08 07:50:27;;;;;;;;;;;;;;;-6.47;100.00;100548.28;5595873;31;34797;-83
2022/01/08 07:53:30;;;;;;;;;;;;;;;-6.42;100.00;100540.47;5595199;31;35153;-82
2022/01/08 07:56:34;;;;;;;;;;;;;;;-6.41;100.00;100537.00;5597441;31;34420;-82
2022/01/08 07:59:37;;;;;;;;;;;;;;;-6.34;100.00;100537.75;5597594;31;32923;-83
2022/01/08 08:02:40;;;;;;;;;;;;;;;-6.41;100.00;100530.12;5597988;31;34469;-82
2022/01/08 08:05:43;;;;;;;;;;;;;;;-6.39;100.00;100535.28;5597470;31;34379;-82
2022/01/08 08:08:49;;;;;;;;;;;;;;;-6.23;100.00;100526.38;5598780;31;34807;-82
2022/01/08 08:11:51;;;;;;;;;;;;;;;-5.91;100.00;100534.31;5598054;31;34339;-83
2022/01/08 08:14:57;;;;;;;;;;;;;;;-5.67;100.00;100530.38;5597175;31;36087;-83
2022/01/08 08:17:59;;;;;;;;;;;;;;;-5.54;100.00;100527.56;5583756;31;34710;-83
2022/01/08 08:21:02;;;;;;;;;;;;;;;-5.35;100.00;100534.03;5596995;31;34774;-83
2022/01/08 08:24:06;;;;;;;;;;;;;;;-5.13;100.00;100516.31;5597596;31;34012;-83
2022/01/08 08:27:08;;;;;;;;;;;;;;;-4.85;100.00;100514.78;5597421;31;34984;-82
2022/01/08 08:30:14;;;;;;;;;;;;;;;-4.69;100.00;100510.09;5597580;31;34734;-84
2022/01/08 08:33:22;;;;;;;;;;;;;;;-4.79;100.00;100504.34;5597303;31;34742;-83
2022/01/08 08:36:25;;;;;;;;;;;;;;;-4.82;100.00;100504.41;5597780;31;34855;-84
2022/01/08 08:39:28;;;;;;;;;;;;;;;-4.73;100.00;100498.16;5598190;31;34609;-83
2022/01/08 08:42:33;;;;;;;;;;;;;;;-4.82;100.00;100494.91;5596979;31;33823;-82
2022/01/08 08:45:35;;;;;;;;;;;;;;;-4.81;100.00;100488.88;5596819;31;34619;-83
2022/01/08 08:48:38;;;;;;;;;;;;;;;-4.89;100.00;100487.34;5600332;31;34292;-84
2022/01/08 08:51:41;;;;;;;;;;;;;;;-4.84;100.00;100480.34;5602919;31;35450;-84
2022/01/08 08:54:44;;;;;;;;;;;;;;;-4.74;100.00;100492.13;5599133;31;34228;-82
2022/01/08 08:57:46;;;;;;;;;;;;;;;-4.73;98.50;100493.00;5600447;31;34509;-83
2022/01/08 09:00:49;;;;;;;;;;;;;;;-4.72;98.86;100492.09;5599835;31;34797;-83
2022/01/08 09:03:52;;;;;;;;;;;;;;;-4.65;98.29;100496.22;5598022;31;35066;-82
2022/01/08 09:06:58;;;;;;;;;;;;;;;-4.68;97.00;100506.62;5600448;31;34430;-83
2022/01/08 09:10:02;;;;;;;;;;;;;;;-4.63;93.28;100519.41;5599168;31;35007;-82
2022/01/08 09:13:05;;;;;;;;;;;;;;;-4.83;93.55;100502.69;5599183;31;35106;-83
2022/01/08 09:16:09;;;;;;;;;;;;;;;-4.85;99.27;100499.31;5599185;31;34637;-83
2022/01/08 09:19:15;;;;;;;;;;;;;;;-4.80;98.59;100482.00;5597801;31;33867;-82
2022/01/08 09:22:18;;;;;;;;;;;;;;;-4.61;98.28;100476.34;5597818;31;35696;-82
2022/01/08 09:25:23;;;;;;;;;;;;;;;-4.63;98.64;100484.13;5597332;31;34430;-82
2022/01/08 09:28:28;;;;;;;;;;;;;;;-4.62;98.60;100477.22;5597284;31;34242;-82
2022/01/08 09:31:31;;;;;;;;;;;;;;;-4.53;98.13;100479.56;5597504;31;34858;-84
2022/01/08 09:34:36;;;;;;;;;;;;;;;-4.26;96.92;100475.38;5597541;31;35030;-82
2022/01/08 09:37:44;;;;;;;;;;;;;;;-3.78;94.36;100479.22;5597448;31;34985;-83
2022/01/08 09:40:47;;;;;;;;;;;;;;;-3.52;92.34;100467.22;5596866;31;34382;-83
2022/01/08 09:43:50;;;;;;;;;;;;;;;-3.33;92.44;100464.06;5596475;31;35030;-83
2022/01/08 09:46:52;;;;;;;;;;;;;;;-3.34;91.49;100458.03;5598223;31;34904;-84
2022/01/08 09:49:55;;;;;;;;;;;;;;;-3.27;90.62;100448.34;5596846;31;34466;-83
2022/01/08 09:52:58;;;;;;;;;;;;;;;-3.27;90.41;100453.50;5596691;31;34429;-84
2022/01/08 09:56:02;;;;;;;;;;;;;;;-3.25;91.05;100451.72;5596805;31;34426;-83
2022/01/08 09:59:05;;;;;;;;;;;;;;;-3.50;89.84;100452.50;5599347;31;33933;-84
2022/01/08 10:02:08;;;;;;;;;;;;;;;-3.36;92.00;100451.22;5597455;31;34226;-83
2022/01/08 10:05:14;;;;;;;;;;;;;;;-3.40;90.98;100445.31;5597389;31;34019;-83
2022/01/08 10:08:28;;;;;;;;;;;;;;;-3.23;89.80;100443.91;5597348;31;34296;-83
2022/01/08 10:11:33;;;;;;;;;;;;;;;-3.06;87.91;100443.34;5597134;31;34305;-82
2022/01/08 10:17:13;;;;;;;;;;;;;;;-2.75;86.38;100438.00;5597511;31;35025;-83
2022/01/08 10:18:01;;;;;;;;;;;;;;;-2.78;85.30;100432.09;5597842;31;34669;-83
2022/01/08 10:21:14;;;;;;;;;;;;;;;-2.41;82.57;100428.19;5597129;31;34422;-82
2022/01/08 10:24:21;;;;;;;;;;;;;;;-2.27;81.46;100420.75;5598556;31;34113;-83
2022/01/08 10:27:33;;;;;;;;;;;;;;;-2.33;81.55;100421.81;5598955;31;34351;-83
2022/01/08 10:30:39;;;;;;;;;;;;;;;-2.44;83.65;100417.94;5598038;31;34265;-84
2022/01/08 10:33:43;;;;;;;;;;;;;;;-2.58;81.25;100416.69;5597284;31;34703;-84
2022/01/08 10:36:58;;;;;;;;;;;;;;;-2.76;82.42;100417.34;5598927;31;34407;-83
2022/01/08 10:40:00;;;;;;;;;;;;;;;-2.63;82.18;100408.22;5597578;31;34070;-84
2022/01/08 10:43:17;;;;;;;;;;;;;;;-2.77;83.96;100411.31;5596807;31;34540;-83
2022/01/08 10:46:20;;;;;;;;;;;;;;;-2.91;85.35;100404.03;5595977;31;34988;-83
2022/01/08 10:49:40;;;;;;;;;;;;;;;-3.22;85.97;100410.22;5596489;31;34697;-83
2022/01/08 10:52:46;;;;;;;;;;;;;;;-3.14;86.06;100408.22;5597389;31;33683;-84
2022/01/08 10:55:49;;;;;;;;;;;;;;;-2.76;83.60;100418.19;5596160;31;34545;-83
2022/01/08 10:59:04;;;;;;;;;;;;;;;-2.62;82.11;100414.25;5596414;31;34956;-83
2022/01/08 11:02:09;;;;;;;;;;;;;;;-2.50;80.39;100408.66;5597280;31;34215;-84
2022/01/08 11:05:14;;;;;;;;;;;;;;;-2.33;80.44;100419.22;5596500;31;34301;-83
2022/01/08 11:08:18;;;;;;;;;;;;;;;-2.20;79.52;100422.25;5596438;31;35399;-84
2022/01/08 11:11:27;;;;;;;;;;;;;;;-2.27;78.12;100415.56;5596925;31;34891;-83
2022/01/08 11:14:59;;;;;;;;;;;;;;;-1.99;77.33;100418.88;5597203;31;34802;-84
2022/01/08 11:18:08;;;;;;;;;;;;;;;-1.76;75.79;100420.63;5582936;31;34796;-83
2022/01/08 11:21:33;;;;;;;;;;;;;;;-1.47;75.16;100406.50;5595444;31;35311;-83
2022/01/08 11:24:35;;;;;;;;;;;;;;;-1.25;72.73;100396.06;5596804;31;35118;-83
2022/01/08 11:27:38;;;;;;;;;;;;;;;-1.37;74.37;100393.16;5595073;31;34444;-83
2022/01/08 11:30:45;;;;;;;;;;;;;;;-1.31;72.99;100396.34;5598135;31;34976;-83
2022/01/08 11:33:55;;;;;;;;;;;;;;;-1.24;73.85;100391.75;5597372;31;34356;-83
2022/01/08 11:36:58;;;;;;;;;;;;;;;-1.12;74.51;100395.56;5597588;31;34107;-83
2022/01/08 11:40:05;;;;;;;;;;;;;;;-0.90;71.97;100394.66;5599352;31;34511;-83
2022/01/08 11:43:09;;;;;;;;;;;;;;;-0.83;70.34;100396.06;5601670;31;34206;-84
2022/01/08 11:46:13;;;;;;;;;;;;;;;-0.64;69.56;100396.97;5598056;31;34420;-83
2022/01/08 11:49:16;;;;;;;;;;;;;;;-0.67;71.02;100386.72;5597857;31;34582;-83
2022/01/08 11:52:21;;;;;;;;;;;;;;;-0.91;70.72;100387.78;5597720;31;34237;-83
2022/01/08 11:55:35;;;;;;;;;;;;;;;-0.85;71.30;100392.72;5597241;31;34675;-83
2022/01/08 11:58:38;;;;;;;;;;;;;;;-0.49;69.58;100389.41;5597290;31;34388;-84
2022/01/08 12:02:02;;;;;;;;;;;;;;;-0.40;69.29;100383.81;5597255;31;34237;-84
2022/01/08 12:05:08;;;;;;;;;;;;;;;-0.36;69.77;100374.12;5597274;31;35346;-83
2022/01/08 12:08:16;;;;;;;;;;;;;;;-0.36;70.48;100380.16;5598597;31;34773;-83
2022/01/08 12:11:19;;;;;;;;;;;;;;;-0.19;69.17;100371.59;5598417;31;33951;-83
2022/01/08 12:14:21;;;;;;;;;;;;;;;-0.25;68.95;100360.62;5597099;31;34646;-83
2022/01/08 12:17:27;;;;;;;;;;;;;;;-0.36;69.53;100359.34;5597284;31;34004;-84
2022/01/08 12:20:47;;;;;;;;;;;;;;;-0.19;69.45;100350.78;5597420;31;34530;-84
2022/01/08 12:23:50;;;;;;;;;;;;;;;0.05;68.96;100347.12;5597453;31;34933;-84
2022/01/08 12:26:53;;;;;;;;;;;;;;;-0.11;67.45;100347.81;5600023;31;34595;-84
2022/01/08 12:29:59;;;;;;;;;;;;;;;-0.17;67.64;100335.13;5598922;31;35335;-83
2022/01/08 12:33:15;;;;;;;;;;;;;;;-0.33;69.25;100333.22;5596863;31;34534;-83
2022/01/08 12:36:26;;;;;;;;;;;;;;;-0.30;69.33;100327.03;5596687;31;35009;-83
2022/01/08 12:39:54;;;;;;;;;;;;;;;-0.08;67.53;100316.47;5598091;31;35135;-83
2022/01/08 12:42:57;;;;;;;;;;;;;;;0.01;67.06;100315.19;5595771;31;34582;-84
2022/01/08 12:46:19;;;;;;;;;;;;;;;-0.16;67.36;100318.56;5596785;31;34269;-83
2022/01/08 12:49:24;;;;;;;;;;;;;;;-0.01;65.66;100317.03;5599455;31;35476;-84
2022/01/08 12:52:29;;;;;;;;;;;;;;;-0.01;63.80;100317.88;5598071;31;34061;-84
2022/01/08 12:55:38;;;;;;;;;;;;;;;-0.24;63.48;100315.50;5597167;31;34563;-84
2022/01/08 12:58:45;;;;;;;;;;;;;;;-0.26;63.87;100306.94;5598078;31;35040;-83
2022/01/08 13:01:48;;;;;;;;;;;;;;;-0.16;63.13;100297.78;5600552;31;35451;-82
2022/01/08 13:04:54;;;;;;;;;;;;;;;-0.08;63.85;100294.81;5598695;31;34183;-82
2022/01/08 13:07:56;;;;;;;;;;;;;;;-0.02;63.68;100303.16;5598063;31;34620;-82
2022/01/08 13:11:01;;;;;;;;;;;;;;;-0.02;63.42;100291.94;5597867;31;34243;-82
2022/01/08 13:14:08;;;;;;;;;;;;;;;0.01;63.46;100288.34;5596671;31;34288;-82
2022/01/08 13:17:12;;;;;;;;;;;;;;;0.15;63.00;100288.53;5596308;31;34954;-84
2022/01/08 13:20:15;;;;;;;;;;;;;;;0.12;63.28;100307.69;5595480;31;33141;-84
2022/01/08 13:23:20;;;;;;;;;;;;;;;-0.09;64.99;100291.37;5596579;31;34983;-83
2022/01/08 13:26:28;;;;;;;;;;;;;;;-0.24;64.88;100287.75;5597389;31;34233;-82
2022/01/08 13:29:32;;;;;;;;;;;;;;;-0.13;65.07;100292.44;5596389;31;34028;-83
2022/01/08 13:32:35;;;;;;;;;;;;;;;-0.02;64.74;100292.75;5596068;31;34940;-83
2022/01/08 13:35:37;;;;;;;;;;;;;;;-0.02;65.89;100289.34;5596462;31;34805;-83
2022/01/08 13:38:43;;;;;;;;;;;;;;;0.13;65.12;100277.34;5602419;31;34141;-83
2022/01/08 13:41:45;;;;;;;;;;;;;;;-0.12;64.63;100272.50;5597902;31;35478;-83
2022/01/08 13:44:51;;;;;;;;;;;;;;;-0.29;65.29;100261.13;5595276;31;34262;-82
2022/01/08 13:47:54;;;;;;;;;;;;;;;-0.41;66.63;100266.88;5597409;31;34801;-83
2022/01/08 13:51:06;;;;;;;;;;;;;;;-0.53;65.90;100263.13;5596420;31;34093;-82
2022/01/08 13:54:09;;;;;;;;;;;;;;;-0.60;65.62;100266.91;5595159;31;34732;-82
2022/01/08 13:57:15;;;;;;;;;;;;;;;-0.72;65.21;100269.12;5595360;31;35281;-82
2022/01/08 14:00:17;;;;;;;;;;;;;;;-0.76;66.54;100266.75;5595486;31;34851;-82
2022/01/08 14:03:30;;;;;;;;;;;;;;;-0.91;67.28;100270.87;5595733;31;34577;-83
2022/01/08 14:06:37;;;;;;;;;;;;;;;-0.90;68.20;100272.56;5595667;31;35050;-82
2022/01/08 14:09:56;;;;;;;;;;;;;;;-0.94;66.91;100269.28;5596717;31;34592;-82
2022/01/08 14:13:02;;;;;;;;;;;;;;;-1.09;66.53;100266.44;5596174;31;34434;-84
2022/01/08 14:16:07;;;;;;;;;;;;;;;-1.10;63.89;100263.94;5595882;31;34445;-84
2022/01/08 14:19:14;;;;;;;;;;;;;;;-1.21;63.71;100260.94;5598331;31;35464;-83
2022/01/08 14:22:23;;;;;;;;;;;;;;;-1.30;63.66;100251.81;5597853;31;35160;-82
2022/01/08 14:25:25;;;;;;;;;;;;;;;-1.47;64.43;100247.34;5597178;31;34781;-82
2022/01/08 14:28:30;;;;;;;;;;;;;;;-1.48;63.35;100241.31;5595516;31;34258;-82
2022/01/08 14:31:33;;;;;;;;;;;;;;;-1.53;62.83;100245.03;5596634;31;34349;-84
2022/01/08 14:35:02;;;;;;;;;;;;;;;-1.70;64.24;100241.38;5595876;31;34849;-83
2022/01/08 14:38:05;;;;;;;;;;;;;;;-1.84;65.33;100252.31;5593811;31;34475;-83
2022/01/08 14:41:10;;;;;;;;;;;;;;;-2.03;66.63;100244.44;5595104;31;36846;-82
2022/01/08 14:44:13;;;;;;;;;;;;;;;-2.13;67.03;100237.94;5594980;31;34551;-82
2022/01/08 14:47:31;;;;;;;;;;;;;;;-2.21;66.77;100244.28;5594855;31;34094;-82
2022/01/08 14:50:37;;;;;;;;;;;;;;;-2.32;69.41;100236.09;5600818;31;34593;-82
2022/01/08 14:53:39;;;;;;;;;;;;;;;-2.47;69.58;100236.69;5597269;31;35670;-82
2022/01/08 14:56:46;;;;;;;;;;;;;;;-2.58;70.01;100239.69;5595536;31;33848;-84
2022/01/08 14:59:48;;;;;;;;;;;;;;;-2.72;70.12;100235.03;5594728;31;34661;-83
2022/01/08 15:02:51;;;;;;;;;;;;;;;-2.83;70.85;100241.47;5594714;31;34209;-83
2022/01/08 15:05:54;;;;;;;;;;;;;;;-2.92;71.90;100235.75;5597069;31;34454;-83
2022/01/08 15:08:58;;;;;;;;;;;;;;;-2.98;71.52;100231.66;5596755;31;34477;-82
2022/01/08 15:12:04;;;;;;;;;;;;;;;-3.07;73.38;100226.81;5597042;31;34574;-82
2022/01/08 15:15:07;;;;;;;;;;;;;;;-3.21;72.76;100224.75;5597060;31;34116;-82
2022/01/08 15:18:10;;;;;;;;;;;;;;;-3.12;74.67;100219.22;5598397;31;34280;-82
2022/01/08 15:21:13;;;;;;;;;;;;;;;-3.21;74.17;100219.56;5597079;31;34476;-82
2022/01/08 15:24:18;;;;;;;;;;;;;;;-3.35;74.80;100213.13;5597431;31;34656;-82
2022/01/08 15:27:27;;;;;;;;;;;;;;;-3.44;75.84;100203.97;5597375;31;34972;-82
2022/01/08 15:30:29;;;;;;;;;;;;;;;-3.54;75.53;100206.94;5597963;31;34441;-82
2022/01/08 15:33:32;;;;;;;;;;;;;;;-3.59;76.37;100207.09;5596618;31;34447;-82
2022/01/08 15:36:35;;;;;;;;;;;;;;;-3.67;76.60;100202.19;5597020;31;34123;-82
2022/01/08 15:39:38;;;;;;;;;;;;;;;-3.74;76.70;100196.37;5596962;31;34381;-82
2022/01/08 15:42:41;;;;;;;;;;;;;;;-3.78;77.98;100189.63;5596521;31;34382;-82
2022/01/08 15:45:45;;;;;;;;;;;;;;;-3.61;79.42;100185.59;5595867;31;34122;-82
2022/01/08 15:48:47;;;;;;;;;;;;;;;-3.69;80.41;100192.78;5597273;31;34214;-83
2022/01/08 15:51:54;;;;;;;;;;;;;;;-3.76;80.85;100193.00;5598482;31;33710;-82
2022/01/08 15:54:56;;;;;;;;;;;;;;;-3.78;82.17;100189.63;5596967;31;34259;-82
2022/01/08 15:57:59;;;;;;;;;;;;;;;-3.79;81.94;100187.94;5597227;31;34184;-82
2022/01/08 16:01:04;;;;;;;;;;;;;;;-3.74;82.61;100183.44;5597902;31;34165;-83
2022/01/08 16:04:08;;;;;;;;;;;;;;;-3.74;82.64;100180.03;5604427;31;34176;-82